sensor_id;sensor_type;location;lat;lon;timestamp;P1;durP1;ratioP1;P2;durP2;ratioP2
8663;SDS011;4369;47.842;13.096;2023-07-02T00:02:08;4.43;;;4.03;;
8663;SDS011;4369;47.842;13.096;2023-07-02T00:04:35;4.87;;;3.83;;
8663;SDS011;4369;47.842;13.096;2023-07-02T00:07:02;4.33;;;3.57;;
8663;SDS011;4369;47.842;13.096;2023-07-02T00:09:31;4.43;;;3.53;;
8663;SDS011;4369;47.842;13.096;2023-07-02T00:11:57;4.53;;;4.13;;
8663;SDS011;4369;47.842;13.096;2023-07-02T00:14:24;4.03;;;3.63;;
8663;SDS011;4369;47.842;13.096;2023-07-02T00:16:51;5.23;;;4.33;;
8663;SDS011;4369;47.842;13.096;2023-07-02T00:19:18;4.13;;;3.67;;
8663;SDS011;4369;47.842;13.096;2023-07-02T00:21:45;5.30;;;4.60;;
8663;SDS011;4369;47.842;13.096;2023-07-02T00:24:13;4.20;;;3.90;;
8663;SDS011;4369;47.842;13.096;2023-07-02T00:26:42;4.57;;;4.00;;
8663;SDS011;4369;47.842;13.096;2023-07-02T00:29:09;4.67;;;3.50;;
8663;SDS011;4369;47.842;13.096;2023-07-02T00:31:36;4.60;;;4.10;;
8663;SDS011;4369;47.842;13.096;2023-07-02T00:34:03;3.60;;;3.30;;
8663;SDS011;4369;47.842;13.096;2023-07-02T00:36:31;3.57;;;3.27;;
8663;SDS011;4369;47.842;13.096;2023-07-02T00:38:58;3.30;;;3.10;;
8663;SDS011;4369;47.842;13.096;2023-07-02T00:41:26;3.60;;;3.30;;
8663;SDS011;4369;47.842;13.096;2023-07-02T00:43:54;3.83;;;3.00;;
8663;SDS011;4369;47.842;13.096;2023-07-02T00:46:22;4.63;;;3.60;;
8663;SDS011;4369;47.842;13.096;2023-07-02T00:48:50;3.50;;;3.20;;
8663;SDS011;4369;47.842;13.096;2023-07-02T00:51:19;3.70;;;3.10;;
8663;SDS011;4369;47.842;13.096;2023-07-02T00:53:48;3.37;;;3.07;;
8663;SDS011;4369;47.842;13.096;2023-07-02T00:56:17;2.90;;;2.70;;
8663;SDS011;4369;47.842;13.096;2023-07-02T00:58:45;3.17;;;2.87;;
8663;SDS011;4369;47.842;13.096;2023-07-02T01:01:15;2.83;;;2.63;;
8663;SDS011;4369;47.842;13.096;2023-07-02T01:03:52;3.40;;;2.83;;
8663;SDS011;4369;47.842;13.096;2023-07-02T01:06:22;3.70;;;3.33;;
8663;SDS011;4369;47.842;13.096;2023-07-02T01:08:51;3.03;;;2.83;;
8663;SDS011;4369;47.842;13.096;2023-07-02T01:11:20;3.40;;;3.10;;
8663;SDS011;4369;47.842;13.096;2023-07-02T01:13:48;3.23;;;2.93;;
8663;SDS011;4369;47.842;13.096;2023-07-02T01:16:19;2.90;;;2.70;;
8663;SDS011;4369;47.842;13.096;2023-07-02T01:18:47;3.13;;;2.60;;
8663;SDS011;4369;47.842;13.096;2023-07-02T01:21:17;2.80;;;2.60;;
8663;SDS011;4369;47.842;13.096;2023-07-02T01:23:45;2.90;;;2.70;;
8663;SDS011;4369;47.842;13.096;2023-07-02T01:26:12;2.73;;;2.53;;
8663;SDS011;4369;47.842;13.096;2023-07-02T01:28:39;2.53;;;2.33;;
8663;SDS011;4369;47.842;13.096;2023-07-02T01:31:07;3.23;;;2.93;;
8663;SDS011;4369;47.842;13.096;2023-07-02T01:33:34;2.70;;;2.50;;
8663;SDS011;4369;47.842;13.096;2023-07-02T01:36:01;2.93;;;2.73;;
8663;SDS011;4369;47.842;13.096;2023-07-02T01:38:29;3.93;;;2.97;;
8663;SDS011;4369;47.842;13.096;2023-07-02T01:40:56;3.33;;;3.00;;
8663;SDS011;4369;47.842;13.096;2023-07-02T01:43:23;3.60;;;3.30;;
8663;SDS011;4369;47.842;13.096;2023-07-02T01:45:50;3.70;;;3.40;;
8663;SDS011;4369;47.842;13.096;2023-07-02T01:48:16;3.80;;;3.50;;
8663;SDS011;4369;47.842;13.096;2023-07-02T01:50:43;5.17;;;3.90;;
8663;SDS011;4369;47.842;13.096;2023-07-02T01:53:10;4.20;;;3.83;;
8663;SDS011;4369;47.842;13.096;2023-07-02T01:55:38;4.70;;;4.30;;
8663;SDS011;4369;47.842;13.096;2023-07-02T01:58:05;4.47;;;4.03;;
8663;SDS011;4369;47.842;13.096;2023-07-02T02:00:32;5.47;;;4.97;;
8663;SDS011;4369;47.842;13.096;2023-07-02T02:02:59;4.37;;;3.97;;
8663;SDS011;4369;47.842;13.096;2023-07-02T02:05:26;5.80;;;4.87;;
8663;SDS011;4369;47.842;13.096;2023-07-02T02:07:53;5.13;;;4.60;;
8663;SDS011;4369;47.842;13.096;2023-07-02T02:10:19;4.90;;;4.50;;
8663;SDS011;4369;47.842;13.096;2023-07-02T02:12:48;5.80;;;4.70;;
8663;SDS011;4369;47.842;13.096;2023-07-02T02:15:14;4.80;;;4.30;;
8663;SDS011;4369;47.842;13.096;2023-07-02T02:17:41;5.03;;;4.60;;
8663;SDS011;4369;47.842;13.096;2023-07-02T02:20:08;4.77;;;4.37;;
8663;SDS011;4369;47.842;13.096;2023-07-02T02:22:36;5.00;;;4.60;;
8663;SDS011;4369;47.842;13.096;2023-07-02T02:25:03;4.80;;;4.30;;
8663;SDS011;4369;47.842;13.096;2023-07-02T02:27:30;4.83;;;4.40;;
8663;SDS011;4369;47.842;13.096;2023-07-02T02:29:59;5.83;;;4.43;;
8663;SDS011;4369;47.842;13.096;2023-07-02T02:32:25;5.50;;;5.00;;
8663;SDS011;4369;47.842;13.096;2023-07-02T02:34:52;5.20;;;4.70;;
8663;SDS011;4369;47.842;13.096;2023-07-02T02:37:20;5.23;;;4.77;;
8663;SDS011;4369;47.842;13.096;2023-07-02T02:39:48;5.13;;;4.63;;
8663;SDS011;4369;47.842;13.096;2023-07-02T02:42:15;5.20;;;4.70;;
8663;SDS011;4369;47.842;13.096;2023-07-02T02:44:42;5.20;;;4.70;;
8663;SDS011;4369;47.842;13.096;2023-07-02T02:47:10;5.90;;;5.20;;
8663;SDS011;4369;47.842;13.096;2023-07-02T02:49:37;5.60;;;5.00;;
8663;SDS011;4369;47.842;13.096;2023-07-02T02:52:05;5.60;;;4.60;;
8663;SDS011;4369;47.842;13.096;2023-07-02T02:54:32;4.80;;;4.40;;
8663;SDS011;4369;47.842;13.096;2023-07-02T02:56:59;4.90;;;4.50;;
8663;SDS011;4369;47.842;13.096;2023-07-02T02:59:26;5.20;;;4.70;;
8663;SDS011;4369;47.842;13.096;2023-07-02T03:01:52;5.63;;;5.10;;
8663;SDS011;4369;47.842;13.096;2023-07-02T03:04:21;6.13;;;5.30;;
8663;SDS011;4369;47.842;13.096;2023-07-02T03:06:50;5.63;;;5.10;;
8663;SDS011;4369;47.842;13.096;2023-07-02T03:09:18;6.10;;;5.30;;
8663;SDS011;4369;47.842;13.096;2023-07-02T03:11:45;5.93;;;5.33;;
8663;SDS011;4369;47.842;13.096;2023-07-02T03:14:13;6.57;;;4.70;;
8663;SDS011;4369;47.842;13.096;2023-07-02T03:16:40;4.70;;;4.30;;
8663;SDS011;4369;47.842;13.096;2023-07-02T03:19:07;6.33;;;5.00;;
8663;SDS011;4369;47.842;13.096;2023-07-02T03:21:35;8.73;;;5.03;;
8663;SDS011;4369;47.842;13.096;2023-07-02T03:24:02;5.57;;;4.93;;
8663;SDS011;4369;47.842;13.096;2023-07-02T03:26:29;6.77;;;4.53;;
8663;SDS011;4369;47.842;13.096;2023-07-02T03:28:56;4.67;;;4.27;;
8663;SDS011;4369;47.842;13.096;2023-07-02T03:31:23;4.53;;;4.10;;
8663;SDS011;4369;47.842;13.096;2023-07-02T03:33:50;5.47;;;4.70;;
8663;SDS011;4369;47.842;13.096;2023-07-02T03:36:17;4.80;;;4.33;;
8663;SDS011;4369;47.842;13.096;2023-07-02T03:38:45;4.90;;;4.50;;
8663;SDS011;4369;47.842;13.096;2023-07-02T03:41:12;4.43;;;4.03;;
8663;SDS011;4369;47.842;13.096;2023-07-02T03:43:38;3.83;;;3.40;;
8663;SDS011;4369;47.842;13.096;2023-07-02T03:46:05;3.33;;;3.03;;
8663;SDS011;4369;47.842;13.096;2023-07-02T03:48:32;2.80;;;2.60;;
8663;SDS011;4369;47.842;13.096;2023-07-02T03:51:00;2.70;;;2.50;;
8663;SDS011;4369;47.842;13.096;2023-07-02T03:53:27;2.30;;;2.10;;
8663;SDS011;4369;47.842;13.096;2023-07-02T03:55:55;2.20;;;2.10;;
8663;SDS011;4369;47.842;13.096;2023-07-02T03:58:22;2.60;;;2.10;;
8663;SDS011;4369;47.842;13.096;2023-07-02T04:00:49;1.73;;;1.63;;
8663;SDS011;4369;47.842;13.096;2023-07-02T04:03:16;2.27;;;2.07;;
8663;SDS011;4369;47.842;13.096;2023-07-02T04:05:43;2.00;;;1.90;;
8663;SDS011;4369;47.842;13.096;2023-07-02T04:08:10;2.10;;;2.00;;
8663;SDS011;4369;47.842;13.096;2023-07-02T04:10:37;2.47;;;2.27;;
8663;SDS011;4369;47.842;13.096;2023-07-02T04:13:05;2.07;;;1.97;;
8663;SDS011;4369;47.842;13.096;2023-07-02T04:15:32;2.43;;;2.30;;
8663;SDS011;4369;47.842;13.096;2023-07-02T04:17:59;2.53;;;2.33;;
8663;SDS011;4369;47.842;13.096;2023-07-02T04:20:26;2.57;;;2.37;;
8663;SDS011;4369;47.842;13.096;2023-07-02T04:22:53;2.40;;;2.20;;
8663;SDS011;4369;47.842;13.096;2023-07-02T04:25:20;2.40;;;2.30;;
8663;SDS011;4369;47.842;13.096;2023-07-02T04:27:50;3.00;;;2.50;;
8663;SDS011;4369;47.842;13.096;2023-07-02T04:30:25;2.57;;;2.37;;
8663;SDS011;4369;47.842;13.096;2023-07-02T04:32:55;2.80;;;2.60;;
8663;SDS011;4369;47.842;13.096;2023-07-02T04:35:22;2.70;;;2.50;;
8663;SDS011;4369;47.842;13.096;2023-07-02T04:37:49;3.63;;;2.50;;
8663;SDS011;4369;47.842;13.096;2023-07-02T04:40:16;2.63;;;2.43;;
8663;SDS011;4369;47.842;13.096;2023-07-02T04:42:43;2.90;;;2.70;;
8663;SDS011;4369;47.842;13.096;2023-07-02T04:45:12;2.83;;;2.20;;
8663;SDS011;4369;47.842;13.096;2023-07-02T04:47:42;2.40;;;2.20;;
8663;SDS011;4369;47.842;13.096;2023-07-02T04:50:09;2.13;;;2.03;;
8663;SDS011;4369;47.842;13.096;2023-07-02T04:52:37;2.20;;;2.03;;
8663;SDS011;4369;47.842;13.096;2023-07-02T04:55:04;2.47;;;2.27;;
8663;SDS011;4369;47.842;13.096;2023-07-02T04:57:31;2.50;;;2.30;;
8663;SDS011;4369;47.842;13.096;2023-07-02T04:59:58;2.23;;;2.03;;
8663;SDS011;4369;47.842;13.096;2023-07-02T05:02:26;2.33;;;2.13;;
8663;SDS011;4369;47.842;13.096;2023-07-02T05:04:54;2.70;;;2.50;;
8663;SDS011;4369;47.842;13.096;2023-07-02T05:07:21;4.07;;;2.67;;
8663;SDS011;4369;47.842;13.096;2023-07-02T05:09:48;2.63;;;2.47;;
8663;SDS011;4369;47.842;13.096;2023-07-02T05:12:16;2.50;;;2.40;;
8663;SDS011;4369;47.842;13.096;2023-07-02T05:14:43;2.73;;;2.53;;
8663;SDS011;4369;47.842;13.096;2023-07-02T05:17:11;2.73;;;2.50;;
8663;SDS011;4369;47.842;13.096;2023-07-02T05:19:39;3.30;;;2.70;;
8663;SDS011;4369;47.842;13.096;2023-07-02T05:22:08;2.93;;;2.73;;
8663;SDS011;4369;47.842;13.096;2023-07-02T05:24:35;3.00;;;2.60;;
8663;SDS011;4369;47.842;13.096;2023-07-02T05:27:02;2.90;;;2.70;;
8663;SDS011;4369;47.842;13.096;2023-07-02T05:29:29;3.27;;;2.80;;
8663;SDS011;4369;47.842;13.096;2023-07-02T05:31:56;2.87;;;2.60;;
8663;SDS011;4369;47.842;13.096;2023-07-02T05:34:25;3.10;;;2.80;;
8663;SDS011;4369;47.842;13.096;2023-07-02T05:36:52;2.93;;;2.73;;
8663;SDS011;4369;47.842;13.096;2023-07-02T05:39:30;3.67;;;2.93;;
8663;SDS011;4369;47.842;13.096;2023-07-02T05:41:57;3.20;;;3.00;;
8663;SDS011;4369;47.842;13.096;2023-07-02T05:44:24;4.00;;;3.70;;
8663;SDS011;4369;47.842;13.096;2023-07-02T05:46:51;3.37;;;3.10;;
8663;SDS011;4369;47.842;13.096;2023-07-02T05:49:18;4.17;;;3.73;;
8663;SDS011;4369;47.842;13.096;2023-07-02T05:51:44;4.00;;;3.70;;
8663;SDS011;4369;47.842;13.096;2023-07-02T05:54:11;4.20;;;3.80;;
8663;SDS011;4369;47.842;13.096;2023-07-02T05:56:40;4.50;;;3.70;;
8663;SDS011;4369;47.842;13.096;2023-07-02T05:59:07;4.20;;;3.80;;
8663;SDS011;4369;47.842;13.096;2023-07-02T06:01:34;5.00;;;3.63;;
8663;SDS011;4369;47.842;13.096;2023-07-02T06:04:00;6.13;;;3.50;;
8663;SDS011;4369;47.842;13.096;2023-07-02T06:06:27;5.87;;;4.30;;
8663;SDS011;4369;47.842;13.096;2023-07-02T06:08:54;4.20;;;3.53;;
8663;SDS011;4369;47.842;13.096;2023-07-02T06:11:21;4.17;;;3.40;;
8663;SDS011;4369;47.842;13.096;2023-07-02T06:13:49;5.20;;;3.60;;
8663;SDS011;4369;47.842;13.096;2023-07-02T06:16:16;4.07;;;3.70;;
8663;SDS011;4369;47.842;13.096;2023-07-02T06:18:43;7.33;;;3.93;;
8663;SDS011;4369;47.842;13.096;2023-07-02T06:21:10;4.50;;;3.20;;
8663;SDS011;4369;47.842;13.096;2023-07-02T06:23:40;4.53;;;3.30;;
8663;SDS011;4369;47.842;13.096;2023-07-02T06:26:08;4.20;;;3.17;;
8663;SDS011;4369;47.842;13.096;2023-07-02T06:28:35;3.30;;;2.90;;
8663;SDS011;4369;47.842;13.096;2023-07-02T06:31:03;5.27;;;3.10;;
8663;SDS011;4369;47.842;13.096;2023-07-02T06:33:30;4.23;;;3.07;;
8663;SDS011;4369;47.842;13.096;2023-07-02T06:35:57;5.43;;;3.33;;
8663;SDS011;4369;47.842;13.096;2023-07-02T06:38:23;5.97;;;3.20;;
8663;SDS011;4369;47.842;13.096;2023-07-02T06:40:50;5.73;;;3.33;;
8663;SDS011;4369;47.842;13.096;2023-07-02T06:43:17;4.03;;;3.23;;
8663;SDS011;4369;47.842;13.096;2023-07-02T06:45:44;3.67;;;3.20;;
8663;SDS011;4369;47.842;13.096;2023-07-02T06:48:13;3.63;;;3.33;;
8663;SDS011;4369;47.842;13.096;2023-07-02T06:50:43;5.90;;;3.23;;
8663;SDS011;4369;47.842;13.096;2023-07-02T06:53:10;4.23;;;3.70;;
8663;SDS011;4369;47.842;13.096;2023-07-02T06:55:37;4.07;;;3.60;;
8663;SDS011;4369;47.842;13.096;2023-07-02T06:58:04;4.03;;;3.40;;
8663;SDS011;4369;47.842;13.096;2023-07-02T07:00:31;6.30;;;3.90;;
8663;SDS011;4369;47.842;13.096;2023-07-02T07:03:00;3.77;;;3.40;;
8663;SDS011;4369;47.842;13.096;2023-07-02T07:05:28;4.27;;;3.70;;
8663;SDS011;4369;47.842;13.096;2023-07-02T07:07:55;4.20;;;3.50;;
8663;SDS011;4369;47.842;13.096;2023-07-02T07:10:22;5.17;;;3.73;;
8663;SDS011;4369;47.842;13.096;2023-07-02T07:12:49;5.47;;;3.70;;
8663;SDS011;4369;47.842;13.096;2023-07-02T07:15:16;4.10;;;3.50;;
8663;SDS011;4369;47.842;13.096;2023-07-02T07:17:43;4.23;;;3.83;;
8663;SDS011;4369;47.842;13.096;2023-07-02T07:20:10;4.33;;;3.93;;
8663;SDS011;4369;47.842;13.096;2023-07-02T07:22:39;4.03;;;3.67;;
8663;SDS011;4369;47.842;13.096;2023-07-02T07:25:06;4.93;;;3.40;;
8663;SDS011;4369;47.842;13.096;2023-07-02T07:27:34;4.20;;;3.33;;
8663;SDS011;4369;47.842;13.096;2023-07-02T07:30:01;5.30;;;3.63;;
8663;SDS011;4369;47.842;13.096;2023-07-02T07:32:28;3.73;;;3.43;;
8663;SDS011;4369;47.842;13.096;2023-07-02T07:34:54;3.97;;;3.67;;
8663;SDS011;4369;47.842;13.096;2023-07-02T07:37:21;3.80;;;3.50;;
8663;SDS011;4369;47.842;13.096;2023-07-02T07:39:51;4.00;;;3.30;;
8663;SDS011;4369;47.842;13.096;2023-07-02T07:42:18;4.03;;;3.50;;
8663;SDS011;4369;47.842;13.096;2023-07-02T07:44:45;4.07;;;3.67;;
8663;SDS011;4369;47.842;13.096;2023-07-02T07:47:12;4.93;;;3.40;;
8663;SDS011;4369;47.842;13.096;2023-07-02T07:49:39;4.10;;;3.70;;
8663;SDS011;4369;47.842;13.096;2023-07-02T07:52:06;3.93;;;3.23;;
8663;SDS011;4369;47.842;13.096;2023-07-02T07:54:33;4.13;;;3.50;;
8663;SDS011;4369;47.842;13.096;2023-07-02T07:57:02;4.80;;;4.00;;
8663;SDS011;4369;47.842;13.096;2023-07-02T07:59:29;3.50;;;3.20;;
8663;SDS011;4369;47.842;13.096;2023-07-02T08:01:56;4.27;;;3.60;;
8663;SDS011;4369;47.842;13.096;2023-07-02T08:04:23;4.97;;;3.77;;
8663;SDS011;4369;47.842;13.096;2023-07-02T08:06:50;4.63;;;3.93;;
8663;SDS011;4369;47.842;13.096;2023-07-02T08:09:17;3.73;;;3.40;;
8663;SDS011;4369;47.842;13.096;2023-07-02T08:11:44;4.50;;;3.30;;
8663;SDS011;4369;47.842;13.096;2023-07-02T08:14:13;3.43;;;3.13;;
8663;SDS011;4369;47.842;13.096;2023-07-02T08:16:40;3.60;;;3.30;;
8663;SDS011;4369;47.842;13.096;2023-07-02T08:19:07;4.43;;;3.50;;
8663;SDS011;4369;47.842;13.096;2023-07-02T08:21:34;4.10;;;3.63;;
8663;SDS011;4369;47.842;13.096;2023-07-02T08:24:02;4.27;;;3.70;;
8663;SDS011;4369;47.842;13.096;2023-07-02T08:26:29;3.67;;;3.30;;
8663;SDS011;4369;47.842;13.096;2023-07-02T08:28:56;4.20;;;3.77;;
8663;SDS011;4369;47.842;13.096;2023-07-02T08:31:25;8.10;;;3.63;;
8663;SDS011;4369;47.842;13.096;2023-07-02T08:33:51;4.67;;;3.30;;
8663;SDS011;4369;47.842;13.096;2023-07-02T08:36:18;4.03;;;3.50;;
8663;SDS011;4369;47.842;13.096;2023-07-02T08:38:45;8.20;;;4.10;;
8663;SDS011;4369;47.842;13.096;2023-07-02T08:41:12;4.37;;;3.97;;
8663;SDS011;4369;47.842;13.096;2023-07-02T08:43:39;4.00;;;3.63;;
8663;SDS011;4369;47.842;13.096;2023-07-02T08:46:07;4.47;;;3.80;;
8663;SDS011;4369;47.842;13.096;2023-07-02T08:48:36;4.13;;;3.83;;
8663;SDS011;4369;47.842;13.096;2023-07-02T08:51:03;5.10;;;3.83;;
8663;SDS011;4369;47.842;13.096;2023-07-02T08:53:30;4.87;;;3.90;;
8663;SDS011;4369;47.842;13.096;2023-07-02T08:55:58;4.27;;;3.87;;
8663;SDS011;4369;47.842;13.096;2023-07-02T08:58:26;3.97;;;3.67;;
8663;SDS011;4369;47.842;13.096;2023-07-02T09:01:08;4.00;;;3.60;;
8663;SDS011;4369;47.842;13.096;2023-07-02T09:03:38;4.10;;;3.77;;
8663;SDS011;4369;47.842;13.096;2023-07-02T09:06:07;5.57;;;3.80;;
8663;SDS011;4369;47.842;13.096;2023-07-02T09:08:34;4.50;;;4.10;;
8663;SDS011;4369;47.842;13.096;2023-07-02T09:11:06;3.57;;;3.27;;
8663;SDS011;4369;47.842;13.096;2023-07-02T09:13:43;3.70;;;3.40;;
8663;SDS011;4369;47.842;13.096;2023-07-02T09:16:21;6.10;;;4.17;;
8663;SDS011;4369;47.842;13.096;2023-07-02T09:18:57;3.67;;;3.37;;
8663;SDS011;4369;47.842;13.096;2023-07-02T09:21:25;4.30;;;3.40;;
8663;SDS011;4369;47.842;13.096;2023-07-02T09:23:53;5.50;;;3.90;;
8663;SDS011;4369;47.842;13.096;2023-07-02T09:26:20;4.90;;;3.50;;
8663;SDS011;4369;47.842;13.096;2023-07-02T09:28:47;5.57;;;3.80;;
8663;SDS011;4369;47.842;13.096;2023-07-02T09:31:14;3.80;;;3.50;;
8663;SDS011;4369;47.842;13.096;2023-07-02T09:33:41;5.27;;;3.93;;
8663;SDS011;4369;47.842;13.096;2023-07-02T09:36:09;4.20;;;3.80;;
8663;SDS011;4369;47.842;13.096;2023-07-02T09:38:38;3.80;;;3.50;;
8663;SDS011;4369;47.842;13.096;2023-07-02T09:41:06;4.73;;;3.73;;
8663;SDS011;4369;47.842;13.096;2023-07-02T09:43:34;4.33;;;3.60;;
8663;SDS011;4369;47.842;13.096;2023-07-02T09:46:01;4.47;;;3.70;;
8663;SDS011;4369;47.842;13.096;2023-07-02T09:48:29;4.27;;;3.70;;
8663;SDS011;4369;47.842;13.096;2023-07-02T09:51:01;4.00;;;3.60;;
8663;SDS011;4369;47.842;13.096;2023-07-02T09:53:31;4.37;;;3.93;;
8663;SDS011;4369;47.842;13.096;2023-07-02T09:55:58;4.10;;;3.70;;
8663;SDS011;4369;47.842;13.096;2023-07-02T09:58:25;4.30;;;3.90;;
8663;SDS011;4369;47.842;13.096;2023-07-02T10:00:52;4.20;;;3.90;;
8663;SDS011;4369;47.842;13.096;2023-07-02T10:03:27;6.30;;;4.00;;
8663;SDS011;4369;47.842;13.096;2023-07-02T10:06:02;4.07;;;3.50;;
8663;SDS011;4369;47.842;13.096;2023-07-02T10:08:32;4.13;;;3.60;;
8663;SDS011;4369;47.842;13.096;2023-07-02T10:11:11;4.40;;;3.37;;
8663;SDS011;4369;47.842;13.096;2023-07-02T10:13:39;6.80;;;4.50;;
8663;SDS011;4369;47.842;13.096;2023-07-02T10:16:06;5.63;;;4.07;;
8663;SDS011;4369;47.842;13.096;2023-07-02T10:18:33;5.97;;;4.37;;
8663;SDS011;4369;47.842;13.096;2023-07-02T10:21:00;5.03;;;4.50;;
8663;SDS011;4369;47.842;13.096;2023-07-02T10:23:40;5.10;;;4.40;;
8663;SDS011;4369;47.842;13.096;2023-07-02T10:26:10;5.90;;;4.87;;
8663;SDS011;4369;47.842;13.096;2023-07-02T10:28:39;4.47;;;4.07;;
8663;SDS011;4369;47.842;13.096;2023-07-02T10:31:16;5.87;;;4.40;;
8663;SDS011;4369;47.842;13.096;2023-07-02T10:33:45;4.77;;;4.13;;
8663;SDS011;4369;47.842;13.096;2023-07-02T10:36:19;2.70;;;2.50;;
8663;SDS011;4369;47.842;13.096;2023-07-02T10:38:48;3.20;;;2.90;;
8663;SDS011;4369;47.842;13.096;2023-07-02T10:41:25;3.20;;;2.97;;
8663;SDS011;4369;47.842;13.096;2023-07-02T10:43:53;2.90;;;2.70;;
8663;SDS011;4369;47.842;13.096;2023-07-02T10:46:21;4.07;;;2.20;;
8663;SDS011;4369;47.842;13.096;2023-07-02T10:48:52;2.23;;;2.10;;
8663;SDS011;4369;47.842;13.096;2023-07-02T10:51:19;2.23;;;2.13;;
8663;SDS011;4369;47.842;13.096;2023-07-02T10:53:57;1.90;;;1.80;;
8663;SDS011;4369;47.842;13.096;2023-07-02T10:56:24;1.80;;;1.70;;
8663;SDS011;4369;47.842;13.096;2023-07-02T10:58:52;2.00;;;1.90;;
8663;SDS011;4369;47.842;13.096;2023-07-02T11:01:27;2.43;;;2.23;;
8663;SDS011;4369;47.842;13.096;2023-07-02T11:03:57;3.10;;;2.77;;
8663;SDS011;4369;47.842;13.096;2023-07-02T11:06:25;2.87;;;2.67;;
8663;SDS011;4369;47.842;13.096;2023-07-02T11:08:52;3.30;;;3.00;;
8663;SDS011;4369;47.842;13.096;2023-07-02T11:11:22;2.83;;;2.63;;
8663;SDS011;4369;47.842;13.096;2023-07-02T11:13:49;3.20;;;2.97;;
8663;SDS011;4369;47.842;13.096;2023-07-02T11:16:18;3.93;;;3.63;;
8663;SDS011;4369;47.842;13.096;2023-07-02T11:18:47;4.10;;;3.70;;
8663;SDS011;4369;47.842;13.096;2023-07-02T11:21:14;3.90;;;3.23;;
8663;SDS011;4369;47.842;13.096;2023-07-02T11:23:41;3.50;;;3.20;;
8663;SDS011;4369;47.842;13.096;2023-07-02T11:26:08;3.20;;;2.90;;
8663;SDS011;4369;47.842;13.096;2023-07-02T11:28:47;2.70;;;2.50;;
8663;SDS011;4369;47.842;13.096;2023-07-02T11:31:23;2.60;;;2.40;;
8663;SDS011;4369;47.842;13.096;2023-07-02T11:33:51;4.57;;;2.43;;
8663;SDS011;4369;47.842;13.096;2023-07-02T11:36:21;2.97;;;2.60;;
8663;SDS011;4369;47.842;13.096;2023-07-02T11:38:50;3.77;;;2.37;;
8663;SDS011;4369;47.842;13.096;2023-07-02T11:41:18;2.67;;;2.47;;
8663;SDS011;4369;47.842;13.096;2023-07-02T11:43:47;2.70;;;2.50;;
8663;SDS011;4369;47.842;13.096;2023-07-02T11:46:14;2.83;;;2.50;;
8663;SDS011;4369;47.842;13.096;2023-07-02T11:48:41;3.30;;;2.53;;
8663;SDS011;4369;47.842;13.096;2023-07-02T11:51:08;4.13;;;2.47;;
8663;SDS011;4369;47.842;13.096;2023-07-02T11:53:35;2.80;;;2.60;;
8663;SDS011;4369;47.842;13.096;2023-07-02T11:56:12;3.07;;;2.70;;
8663;SDS011;4369;47.842;13.096;2023-07-02T11:58:43;3.93;;;2.50;;
8663;SDS011;4369;47.842;13.096;2023-07-02T12:01:32;2.90;;;2.70;;
8663;SDS011;4369;47.842;13.096;2023-07-02T12:03:59;3.33;;;3.03;;
8663;SDS011;4369;47.842;13.096;2023-07-02T12:06:26;3.23;;;2.97;;
8663;SDS011;4369;47.842;13.096;2023-07-02T12:08:53;3.53;;;3.20;;
8663;SDS011;4369;47.842;13.096;2023-07-02T12:11:20;3.57;;;3.23;;
8663;SDS011;4369;47.842;13.096;2023-07-02T12:13:47;3.47;;;3.17;;
8663;SDS011;4369;47.842;13.096;2023-07-02T12:16:13;4.00;;;3.60;;
8663;SDS011;4369;47.842;13.096;2023-07-02T12:18:42;4.43;;;3.90;;
8663;SDS011;4369;47.842;13.096;2023-07-02T12:21:09;4.53;;;3.97;;
8663;SDS011;4369;47.842;13.096;2023-07-02T12:23:35;9.07;;;5.47;;
8663;SDS011;4369;47.842;13.096;2023-07-02T12:26:03;6.73;;;4.33;;
8663;SDS011;4369;47.842;13.096;2023-07-02T12:28:29;5.53;;;4.23;;
8663;SDS011;4369;47.842;13.096;2023-07-02T12:30:56;4.30;;;3.90;;
8663;SDS011;4369;47.842;13.096;2023-07-02T12:33:23;5.70;;;4.77;;
8663;SDS011;4369;47.842;13.096;2023-07-02T12:35:51;7.57;;;5.73;;
8663;SDS011;4369;47.842;13.096;2023-07-02T12:38:18;8.60;;;5.93;;
8663;SDS011;4369;47.842;13.096;2023-07-02T12:40:45;6.97;;;5.63;;
8663;SDS011;4369;47.842;13.096;2023-07-02T12:43:13;6.40;;;5.63;;
8663;SDS011;4369;47.842;13.096;2023-07-02T12:45:40;7.13;;;6.37;;
8663;SDS011;4369;47.842;13.096;2023-07-02T12:48:07;6.87;;;5.30;;
8663;SDS011;4369;47.842;13.096;2023-07-02T12:50:36;7.10;;;5.83;;
8663;SDS011;4369;47.842;13.096;2023-07-02T12:53:07;9.47;;;7.50;;
8663;SDS011;4369;47.842;13.096;2023-07-02T12:55:34;8.67;;;7.23;;
8663;SDS011;4369;47.842;13.096;2023-07-02T12:58:01;9.67;;;7.30;;
8663;SDS011;4369;47.842;13.096;2023-07-02T13:00:27;10.00;;;7.87;;
8663;SDS011;4369;47.842;13.096;2023-07-02T13:02:54;10.90;;;8.03;;
8663;SDS011;4369;47.842;13.096;2023-07-02T13:05:23;12.17;;;8.43;;
8663;SDS011;4369;47.842;13.096;2023-07-02T13:07:50;10.70;;;8.80;;
8663;SDS011;4369;47.842;13.096;2023-07-02T13:10:18;10.27;;;8.53;;
8663;SDS011;4369;47.842;13.096;2023-07-02T13:12:45;12.03;;;9.10;;
8663;SDS011;4369;47.842;13.096;2023-07-02T13:15:12;13.63;;;9.53;;
8663;SDS011;4369;47.842;13.096;2023-07-02T13:17:38;12.33;;;9.17;;
8663;SDS011;4369;47.842;13.096;2023-07-02T13:20:06;12.10;;;9.57;;
8663;SDS011;4369;47.842;13.096;2023-07-02T13:22:34;10.80;;;8.50;;
8663;SDS011;4369;47.842;13.096;2023-07-02T13:25:02;12.97;;;9.83;;
8663;SDS011;4369;47.842;13.096;2023-07-02T13:27:31;10.30;;;9.17;;
8663;SDS011;4369;47.842;13.096;2023-07-02T13:29:58;12.90;;;10.23;;
8663;SDS011;4369;47.842;13.096;2023-07-02T13:32:25;13.53;;;10.80;;
8663;SDS011;4369;47.842;13.096;2023-07-02T13:34:52;11.03;;;9.40;;
8663;SDS011;4369;47.842;13.096;2023-07-02T13:37:19;12.80;;;10.17;;
8663;SDS011;4369;47.842;13.096;2023-07-02T13:39:45;11.73;;;10.25;;
8663;SDS011;4369;47.842;13.096;2023-07-02T13:42:13;11.23;;;9.35;;
8663;SDS011;4369;47.842;13.096;2023-07-02T13:44:41;13.60;;;10.25;;
8663;SDS011;4369;47.842;13.096;2023-07-02T13:47:08;12.20;;;10.00;;
8663;SDS011;4369;47.842;13.096;2023-07-02T13:49:36;12.95;;;10.48;;
8663;SDS011;4369;47.842;13.096;2023-07-02T13:52:03;12.40;;;9.95;;
8663;SDS011;4369;47.842;13.096;2023-07-02T13:54:30;14.70;;;10.35;;
8663;SDS011;4369;47.842;13.096;2023-07-02T13:56:57;12.23;;;10.45;;
8663;SDS011;4369;47.842;13.096;2023-07-02T13:59:25;13.18;;;10.40;;
8663;SDS011;4369;47.842;13.096;2023-07-02T14:01:53;12.10;;;10.07;;
8663;SDS011;4369;47.842;13.096;2023-07-02T14:04:19;13.35;;;10.88;;
8663;SDS011;4369;47.842;13.096;2023-07-02T14:06:46;12.55;;;10.65;;
8663;SDS011;4369;47.842;13.096;2023-07-02T14:09:13;13.98;;;10.90;;
8663;SDS011;4369;47.842;13.096;2023-07-02T14:11:41;12.32;;;10.60;;
8663;SDS011;4369;47.842;13.096;2023-07-02T14:14:09;12.65;;;9.95;;
8663;SDS011;4369;47.842;13.096;2023-07-02T14:16:38;13.93;;;10.35;;
8663;SDS011;4369;47.842;13.096;2023-07-02T14:19:05;13.02;;;10.32;;
8663;SDS011;4369;47.842;13.096;2023-07-02T14:21:32;12.70;;;10.68;;
8663;SDS011;4369;47.842;13.096;2023-07-02T14:23:59;13.35;;;10.73;;
8663;SDS011;4369;47.842;13.096;2023-07-02T14:26:26;14.27;;;11.55;;
8663;SDS011;4369;47.842;13.096;2023-07-02T14:28:54;12.05;;;10.10;;
8663;SDS011;4369;47.842;13.096;2023-07-02T14:31:21;14.27;;;10.88;;
8663;SDS011;4369;47.842;13.096;2023-07-02T14:33:49;14.10;;;11.00;;
8663;SDS011;4369;47.842;13.096;2023-07-02T14:36:16;14.15;;;11.25;;
8663;SDS011;4369;47.842;13.096;2023-07-02T14:38:43;15.93;;;11.15;;
8663;SDS011;4369;47.842;13.096;2023-07-02T14:41:10;12.55;;;11.02;;
8663;SDS011;4369;47.842;13.096;2023-07-02T14:43:37;12.88;;;10.95;;
8663;SDS011;4369;47.842;13.096;2023-07-02T14:46:04;11.75;;;10.30;;
8663;SDS011;4369;47.842;13.096;2023-07-02T14:48:31;14.68;;;11.45;;
8663;SDS011;4369;47.842;13.096;2023-07-02T14:51:00;14.25;;;10.95;;
8663;SDS011;4369;47.842;13.096;2023-07-02T14:53:29;13.05;;;11.10;;
8663;SDS011;4369;47.842;13.096;2023-07-02T14:55:57;13.00;;;11.00;;
8663;SDS011;4369;47.842;13.096;2023-07-02T14:58:25;13.93;;;10.70;;
8663;SDS011;4369;47.842;13.096;2023-07-02T15:00:54;14.52;;;11.32;;
8663;SDS011;4369;47.842;13.096;2023-07-02T15:03:23;13.27;;;11.38;;